Time;durP1;ratioP1;P1;durP2;ratioP2;P2;SDS_P1;SDS_P2;PMS_P1;PMS_P2;Temp;Humidity;BMP_temperature;BMP_pressure;BME280_temperature;BME280_humidity;BME280_pressure;Samples;Min_cycle;Max_cycle;Signal;HPM_P1;HPM_P2
2021/12/15 00:01:06;;;;;;;47.60;20.13;;;;;;;-1.46;67.38;99825.81;5066943;28;20096;-69
2021/12/15 00:03:34;;;;;;;;;;;;;;;-1.48;67.47;99828.72;5071087;28;20068;-70
2021/12/15 00:06:03;;;;;;;47.42;17.75;;;;;;;-1.43;67.27;99814.69;5063340;28;20407;-72
2021/12/15 00:08:29;;;;;;;43.25;18.65;;;;;;;-1.41;67.12;99823.38;5070481;28;20044;-72
2021/12/15 00:10:56;;;;;;;48.83;19.20;;;;;;;-1.42;67.10;99821.72;5035671;28;20600;-72
2021/12/15 00:13:23;;;;;;;46.77;19.03;;;;;;;-1.41;67.19;99826.06;5069714;28;20072;-75
2021/12/15 00:15:49;;;;;;;41.72;18.27;;;;;;;-1.40;67.28;99816.16;5070213;28;20485;-74
2021/12/15 00:18:16;;;;;;;42.53;19.08;;;;;;;-1.40;67.27;99822.38;5061350;28;20083;-73
2021/12/15 00:20:43;;;;;;;46.55;19.90;;;;;;;-1.41;67.41;99818.00;5064152;28;20037;-74
2021/12/15 00:23:11;;;;;;;47.72;19.23;;;;;;;-1.46;67.13;99799.84;5071214;28;20146;-71
2021/12/15 00:25:40;;;;;;;46.65;19.35;;;;;;;-1.37;67.21;99805.88;5067818;28;20056;-72
2021/12/15 00:28:07;;;;;;;48.47;18.52;;;;;;;-1.29;66.84;99811.06;5058751;28;20511;-73
2021/12/15 00:30:34;;;;;;;47.90;20.23;;;;;;;-1.31;66.94;99802.41;5063706;28;20052;-74
2021/12/15 00:33:04;;;;;;;46.27;18.43;;;;;;;-1.27;67.05;99802.00;5068732;28;20094;-73
2021/12/15 00:35:30;;;;;;;47.05;18.90;;;;;;;-1.26;66.98;99796.44;5062589;28;20036;-72
2021/12/15 00:37:56;;;;;;;47.28;19.15;;;;;;;-1.26;67.14;99809.88;5066996;28;20049;-73
2021/12/15 00:40:25;;;;;;;46.45;19.95;;;;;;;-1.21;66.89;99803.91;5066354;28;20048;-73
2021/12/15 00:42:58;;;;;;;46.33;20.00;;;;;;;-1.24;66.91;99807.00;5063325;28;20043;-73
2021/12/15 00:45:27;;;;;;;44.85;19.17;;;;;;;-1.24;67.08;99807.81;5070368;28;20062;-73
2021/12/15 00:47:54;;;;;;;51.70;20.60;;;;;;;-1.15;66.84;99803.13;5061762;28;20045;-72
2021/12/15 00:50:23;;;;;;;44.43;20.10;;;;;;;-1.10;66.52;99810.59;5053319;28;20402;-72
2021/12/15 00:52:51;;;;;;;47.88;19.02;;;;;;;-1.17;66.79;99806.00;5061988;28;20531;-73
2021/12/15 00:55:19;;;;;;;45.17;19.53;;;;;;;-1.21;66.96;99809.28;5058396;28;20057;-72
2021/12/15 00:57:51;;;;;;;46.53;19.70;;;;;;;-1.29;67.00;99808.41;5063378;28;20049;-73
2021/12/15 01:00:22;;;;;;;44.00;19.43;;;;;;;-1.37;67.19;99807.72;5054953;28;20494;-74
2021/12/15 01:02:49;;;;;;;51.72;20.20;;;;;;;-1.26;66.97;99809.03;5047040;28;20045;-73
2021/12/15 01:05:19;;;;;;;41.63;18.33;;;;;;;-1.34;66.78;99810.00;5067723;28;20502;-73
2021/12/15 01:07:47;;;;;;;54.87;20.23;;;;;;;-1.40;66.98;99792.03;5067329;28;20127;-73
2021/12/15 01:10:21;;;;;;;47.58;19.73;;;;;;;-1.32;66.84;99791.88;5064551;28;20054;-73
2021/12/15 01:20:51;;;;;;;43.75;18.77;;;;;;;-1.35;66.88;99790.41;5055090;28;20052;-73
2021/12/15 01:23:24;;;;;;;45.63;17.20;;;;;;;-1.43;67.10;99769.09;5054968;28;20080;-72
2021/12/15 01:25:54;;;;;;;43.33;19.40;;;;;;;-1.33;67.08;99787.50;5027828;28;20413;-73
2021/12/15 01:28:21;;;;;;;41.90;17.87;;;;;;;-1.35;67.32;99771.63;5058430;28;20416;-73
2021/12/15 01:30:49;;;;;;;;;;;;;;;-1.37;67.28;99770.16;5057759;28;20175;-73
2021/12/15 01:33:15;;;;;;;37.90;17.10;;;;;;;-1.32;67.21;99771.22;5042940;28;20427;-72
2021/12/15 01:35:45;;;;;;;44.77;18.07;;;;;;;-1.31;67.25;99774.75;5061114;28;20053;-74
2021/12/15 01:38:11;;;;;;;46.83;17.93;;;;;;;-1.33;67.43;99771.41;5063529;28;20060;-73
2021/12/15 01:40:43;;;;;;;50.00;19.80;;;;;;;-1.41;67.77;99766.22;5059277;28;20560;-74
2021/12/15 01:43:17;;;;;;;53.10;20.13;;;;;;;-1.41;67.93;99764.34;5046689;28;20048;-73
2021/12/15 01:48:33;;;;;;;43.78;18.30;;;;;;;-1.43;68.22;99755.69;5066891;28;20064;-74
2021/12/15 01:51:00;;;;;;;47.83;19.30;;;;;;;-1.33;68.18;99768.75;5062585;28;20052;-74
2021/12/15 01:53:26;;;;;;;43.45;18.38;;;;;;;-1.38;68.28;99765.81;5069036;28;20523;-75
2021/12/15 01:55:52;;;;;;;46.72;20.80;;;;;;;-1.42;68.54;99762.69;5058564;28;20051;-74
2021/12/15 01:58:22;;;;;;;46.60;19.77;;;;;;;-1.43;68.42;99766.41;5065828;28;20097;-74
2021/12/15 02:00:52;;;;;;;47.63;20.17;;;;;;;-1.46;68.70;99754.25;5044210;28;20044;-74
2021/12/15 02:03:19;;;;;;;45.60;19.30;;;;;;;-1.38;68.82;99757.78;5068825;28;20060;-74
2021/12/15 02:05:47;;;;;;;48.22;19.67;;;;;;;-1.26;68.31;99758.88;5063122;28;20051;-73
2021/12/15 02:08:15;;;;;;;47.73;20.07;;;;;;;-1.19;68.20;99761.59;5066290;28;20098;-73
2021/12/15 02:10:45;;;;;;;47.17;19.40;;;;;;;-1.13;67.92;99768.84;5040536;28;20056;-74
2021/12/15 02:13:32;;;;;;;44.97;18.27;;;;;;;-1.15;67.77;99768.22;5062649;28;20135;-74
2021/12/15 02:16:02;;;;;;;53.30;19.50;;;;;;;-1.07;67.66;99773.44;5065180;28;20049;-73
2021/12/15 02:18:32;;;;;;;48.95;18.98;;;;;;;-1.24;68.14;99759.50;5064952;28;20398;-73
2021/12/15 02:21:04;;;;;;;43.40;18.30;;;;;;;-1.34;68.50;99757.19;5049489;28;20504;-74
2021/12/15 02:23:40;;;;;;;43.83;19.93;;;;;;;-1.33;68.48;99761.53;5078470;28;20071;-73
2021/12/15 02:26:11;;;;;;;42.17;19.57;;;;;;;-1.34;68.41;99762.56;5065461;28;20044;-72
2021/12/15 02:28:42;;;;;;;46.80;18.90;;;;;;;-1.34;68.44;99767.09;5066136;28;20091;-73
2021/12/15 02:31:33;;;;;;;48.45;19.30;;;;;;;-1.39;68.61;99758.81;5065348;28;20520;-73
2021/12/15 02:34:34;;;;;;;43.60;18.80;;;;;;;-1.34;68.69;99765.25;5061317;28;20139;-75
2021/12/15 02:37:20;;;;;;;50.75;20.85;;;;;;;-1.37;68.81;99764.78;5047897;28;20057;-74
2021/12/15 02:39:53;;;;;;;44.53;18.73;;;;;;;-1.32;68.60;99762.38;5041752;28;20568;-74
2021/12/15 02:42:21;;;;;;;49.42;19.65;;;;;;;-1.29;68.55;99759.28;5055442;28;20048;-75
2021/12/15 02:44:50;;;;;;;51.30;18.92;;;;;;;-1.27;68.36;99764.44;5064259;28;20490;-73
2021/12/15 02:47:20;;;;;;;44.58;18.35;;;;;;;-1.22;68.21;99760.13;5059185;28;20048;-75
2021/12/15 02:49:48;;;;;;;43.77;18.83;;;;;;;-1.24;68.43;99754.16;5055722;28;20056;-74
2021/12/15 02:52:18;;;;;;;;;;;;;;;-1.21;68.52;99758.31;5051851;28;20053;-74
2021/12/15 02:54:45;;;;;;;43.60;18.40;;;;;;;-1.26;68.36;99758.88;5064579;28;19924;-73
2021/12/15 02:57:12;;;;;;;53.77;18.17;;;;;;;-1.23;68.22;99755.00;5057310;28;20056;-73
2021/12/15 03:05:01;;;;;;;51.97;20.00;;;;;;;-1.11;68.37;99747.19;5061144;28;20046;-73
2021/12/15 03:07:42;;;;;;;51.37;19.30;;;;;;;-1.18;68.48;99739.91;5055965;28;20697;-73
2021/12/15 03:15:48;;;;;;;48.30;20.13;;;;;;;-1.19;68.39;99740.94;5062594;28;20055;-73
2021/12/15 03:18:17;;;;;;;55.75;19.67;;;;;;;-1.25;68.49;99706.03;5056688;28;20056;-70
2021/12/15 03:20:49;;;;;;;51.72;20.67;;;;;;;-1.26;68.63;99729.38;5039755;28;20425;-73
2021/12/15 03:23:25;;;;;;;46.83;19.23;;;;;;;-1.24;68.54;99726.50;5068927;28;20455;-73
2021/12/15 03:25:52;;;;;;;46.95;17.98;;;;;;;-1.28;68.63;99712.66;5083808;28;20044;-74
2021/12/15 03:37:04;;;;;;;42.42;17.73;;;;;;;-1.07;68.08;99721.59;5064312;28;20517;-73
2021/12/15 03:39:34;;;;;;;46.27;19.97;;;;;;;-1.21;68.18;99723.41;5065764;28;20558;-72
2021/12/15 03:42:05;;;;;;;42.75;19.65;;;;;;;-1.28;68.70;99734.13;5065783;28;20072;-75
2021/12/15 03:44:34;;;;;;;51.42;19.30;;;;;;;-1.19;68.46;99732.91;5064966;28;20049;-74
2021/12/15 03:47:05;;;;;;;46.70;19.25;;;;;;;-1.37;68.86;99727.25;5065473;28;20420;-74
2021/12/15 03:49:31;;;;;;;44.75;18.63;;;;;;;-1.33;68.94;99741.91;5066924;28;20037;-74
2021/12/15 03:52:01;;;;;;;48.83;19.17;;;;;;;-1.37;69.25;99732.59;5067162;28;20074;-74
2021/12/15 03:54:27;;;;;;;50.40;20.47;;;;;;;-1.43;69.59;99735.06;5085076;28;20453;-75
2021/12/15 03:56:55;;;;;;;50.58;19.88;;;;;;;-1.43;69.43;99732.38;5067310;28;20412;-72
2021/12/15 03:59:23;;;;;;;47.80;19.87;;;;;;;-1.36;69.48;99739.63;5070676;28;20075;-72
2021/12/15 04:01:50;;;;;;;46.40;19.50;;;;;;;-1.34;69.41;99740.25;5053263;28;20056;-71
2021/12/15 04:04:16;;;;;;;51.63;20.60;;;;;;;-1.27;69.30;99740.28;5067119;28;20156;-73
2021/12/15 04:06:42;;;;;;;49.97;19.60;;;;;;;-1.19;69.02;99729.41;5063086;28;20052;-72
2021/12/15 04:09:13;;;;;;;50.47;19.98;;;;;;;-1.09;68.82;99721.81;5066681;28;20049;-73
2021/12/15 04:11:40;;;;;;;47.85;18.95;;;;;;;-0.94;68.32;99731.56;5061169;28;20064;-78
2021/12/15 04:14:11;;;;;;;47.58;20.92;;;;;;;-1.02;68.38;99717.28;5064375;28;20068;-73
2021/12/15 04:19:08;;;;;;;48.27;19.20;;;;;;;-0.92;68.16;99713.41;5066390;28;20064;-71
2021/12/15 04:21:37;;;;;;;50.88;19.45;;;;;;;-0.97;68.28;99716.69;5064165;28;20046;-72
2021/12/15 04:24:06;;;;;;;58.03;19.95;;;;;;;-0.98;68.42;99704.31;5063249;28;20040;-71
2021/12/15 04:26:32;;;;;;;45.63;19.65;;;;;;;-1.10;68.64;99711.28;5058846;28;20161;-72
2021/12/15 04:28:59;;;;;;;47.33;20.63;;;;;;;-1.15;68.90;99704.66;5062903;28;20068;-71
2021/12/15 04:31:29;;;;;;;49.83;19.45;;;;;;;-1.07;68.85;99713.56;5061131;28;20090;-71
2021/12/15 04:33:59;;;;;;;45.50;19.48;;;;;;;-1.13;68.93;99700.94;5060863;28;20049;-71
2021/12/15 04:36:28;;;;;;;43.55;18.77;;;;;;;-1.24;69.14;99684.38;5065278;28;20053;-69
2021/12/15 04:38:56;;;;;;;45.53;19.20;;;;;;;-1.19;69.03;99706.06;5065084;28;20517;-72
2021/12/15 04:41:22;;;;;;;43.20;18.93;;;;;;;-1.09;68.92;99702.19;5061594;28;20509;-72
2021/12/15 04:43:58;;;;;;;50.97;18.80;;;;;;;-1.15;69.04;99690.41;5026517;28;20049;-72
2021/12/15 04:46:28;;;;;;;44.60;18.23;;;;;;;-1.01;68.54;99694.78;5064983;28;20094;-72
2021/12/15 04:48:54;;;;;;;50.78;18.58;;;;;;;-0.93;68.30;99693.78;5054361;28;20051;-69
2021/12/15 04:51:20;;;;;;;42.15;18.13;;;;;;;-0.94;68.30;99692.13;5064459;28;20055;-72
2021/12/15 04:53:52;;;;;;;44.60;17.00;;;;;;;-0.88;68.19;99702.06;5062295;28;20173;-72
2021/12/15 04:56:19;;;;;;;38.72;16.25;;;;;;;-0.90;68.14;99706.00;5081101;28;20053;-72
2021/12/15 04:58:46;;;;;;;40.72;16.88;;;;;;;-0.94;68.01;99688.59;5083506;28;20529;-71
2021/12/15 05:01:12;;;;;;;40.03;16.10;;;;;;;-1.02;68.42;99692.31;5060746;28;20474;-72
2021/12/15 05:03:41;;;;;;;39.70;15.43;;;;;;;-0.97;68.15;99695.22;5078690;28;20053;-72
2021/12/15 05:06:08;;;;;;;35.13;15.52;;;;;;;-0.83;67.57;99690.72;5060749;28;20057;-74
2021/12/15 05:08:36;;;;;;;35.08;14.43;;;;;;;-0.94;67.83;99691.28;5062629;28;20064;-71
2021/12/15 05:11:02;;;;;;;;;;;;;;;-1.00;67.85;99692.94;5027077;28;20044;-71
2021/12/15 05:13:29;;;;;;;38.90;14.53;;;;;;;-1.03;68.02;99710.28;5061903;28;19929;-72
2021/12/15 05:15:55;;;;;;;35.50;14.37;;;;;;;-1.02;67.88;99717.28;5065799;28;20305;-72
2021/12/15 05:18:21;;;;;;;41.17;16.33;;;;;;;-0.98;67.90;99706.16;5058632;28;20460;-72
2021/12/15 05:20:52;;;;;;;38.40;14.73;;;;;;;-0.90;67.88;99711.34;5050052;28;20073;-71
2021/12/15 05:23:18;;;;;;;38.10;15.27;;;;;;;-0.97;68.06;99697.91;5058525;28;20048;-72
2021/12/15 05:25:45;;;;;;;36.60;15.17;;;;;;;-0.85;67.90;99708.88;5063150;28;20075;-72
2021/12/15 05:28:12;;;;;;;37.00;14.18;;;;;;;-0.73;67.48;99703.75;5079931;28;20105;-72
2021/12/15 05:30:39;;;;;;;37.17;14.43;;;;;;;-0.75;67.55;99701.28;5063176;28;20080;-72
2021/12/15 05:33:06;;;;;;;34.35;13.60;;;;;;;-0.80;67.59;99687.63;5081740;28;20044;-72
2021/12/15 05:35:34;;;;;;;38.75;15.40;;;;;;;-0.83;67.76;99693.41;5047754;28;20045;-72
2021/12/15 05:38:03;;;;;;;36.63;13.35;;;;;;;-0.76;67.73;99690.72;5050685;28;20049;-75
2021/12/15 05:40:31;;;;;;;39.88;15.05;;;;;;;-0.79;67.80;99693.84;5058807;28;20057;-76
2021/12/15 05:42:59;;;;;;;33.70;12.97;;;;;;;-0.76;67.76;99699.63;5051577;28;20048;-75
2021/12/15 05:45:28;;;;;;;35.00;13.77;;;;;;;-0.83;67.73;99697.97;5082053;28;20423;-76
2021/12/15 05:47:55;;;;;;;31.17;13.57;;;;;;;-0.87;67.91;99697.53;5060562;28;20040;-76
2021/12/15 05:50:22;;;;;;;33.85;12.88;;;;;;;-0.84;68.03;99701.69;5024804;28;20041;-76
2021/12/15 05:52:48;;;;;;;35.13;13.65;;;;;;;-0.83;67.85;99692.59;5062021;28;20797;-75
2021/12/15 05:55:18;;;;;;;37.92;14.45;;;;;;;-0.99;68.34;99697.28;5067259;28;20052;-74
2021/12/15 05:57:45;;;;;;;36.78;13.43;;;;;;;-1.02;68.47;99701.19;5042863;28;20098;-74
2021/12/15 06:00:16;;;;;;;32.75;12.32;;;;;;;-1.16;68.57;99675.34;5067482;28;20059;-74
2021/12/15 06:02:43;;;;;;;39.25;13.98;;;;;;;-1.09;68.67;99691.47;5056546;28;20044;-74
2021/12/15 06:05:11;;;;;;;36.08;13.82;;;;;;;-1.15;69.14;99693.09;5061520;28;20064;-74
2021/12/15 06:07:38;;;;;;;32.37;13.90;;;;;;;-1.10;68.94;99689.81;5064673;28;20036;-74
2021/12/15 06:10:06;;;;;;;37.13;13.80;;;;;;;-1.18;69.39;99690.81;5063292;28;20044;-74
2021/12/15 06:12:34;;;;;;;37.00;14.25;;;;;;;-1.11;69.24;99683.59;5065023;28;20041;-74
2021/12/15 06:15:02;;;;;;;32.47;12.10;;;;;;;-1.13;69.32;99682.97;5062414;28;20099;-73
2021/12/15 06:17:29;;;;;;;38.90;12.77;;;;;;;-1.17;69.62;99700.50;5058484;28;20142;-74
2021/12/15 06:19:55;;;;;;;44.30;13.63;;;;;;;-1.16;69.76;99703.00;5047006;28;20094;-75
2021/12/15 06:22:27;;;;;;;30.77;12.43;;;;;;;-1.07;69.55;99697.44;5055356;28;20094;-74
2021/12/15 06:24:56;;;;;;;39.63;13.75;;;;;;;-1.08;69.68;99703.84;5063472;28;20132;-74
2021/12/15 06:27:25;;;;;;;34.30;13.43;;;;;;;-0.90;68.93;99693.38;5061652;28;20032;-74
2021/12/15 06:29:53;;;;;;;36.03;14.40;;;;;;;-0.91;68.95;99698.97;5061931;28;20374;-70
2021/12/15 06:32:21;;;;;;;36.58;14.73;;;;;;;-1.01;69.31;99691.31;5057253;28;20453;-69
2021/12/15 06:34:47;;;;;;;43.50;14.70;;;;;;;-1.09;69.76;99692.31;5063322;28;20041;-70
2021/12/15 06:37:14;;;;;;;37.67;14.18;;;;;;;-1.01;69.67;99702.03;5058774;28;20052;-70
2021/12/15 06:39:40;;;;;;;43.20;15.35;;;;;;;-0.95;69.55;99701.22;5062825;28;20071;-70
2021/12/15 06:42:07;;;;;;;39.03;15.32;;;;;;;-0.86;69.41;99701.88;5060694;28;20045;-68
2021/12/15 06:44:33;;;;;;;38.75;16.15;;;;;;;-0.91;69.54;99697.09;5063163;28;20046;-69
2021/12/15 07:00:29;;;;;;;39.17;14.15;;;;;;;-0.94;69.72;99704.72;5065011;28;20044;-76
2021/12/15 07:02:58;;;;;;;44.28;15.38;;;;;;;-1.18;70.20;99698.88;5052109;28;20053;-75
2021/12/15 07:05:25;;;;;;;43.33;15.85;;;;;;;-1.17;70.41;99708.56;5062447;28;20056;-75
2021/12/15 07:07:53;;;;;;;37.58;15.77;;;;;;;-1.22;70.42;99690.38;5069849;28;20135;-75
2021/12/15 07:10:25;;;;;;;37.92;15.00;;;;;;;-1.15;70.16;99704.66;5070295;28;20072;-75
2021/12/15 07:12:52;;;;;;;40.37;15.07;;;;;;;-1.35;70.72;99683.09;5044650;28;20532;-76
2021/12/15 07:15:20;;;;;;;38.80;12.45;;;;;;;-1.33;70.76;99693.63;5073200;28;20040;-76
2021/12/15 07:17:49;;;;;;;35.67;13.02;;;;;;;-1.32;70.73;99706.84;5072899;28;20083;-76
2021/12/15 07:23:06;;;;;;;38.60;13.57;;;;;;;-1.25;70.59;99701.50;5067240;28;20509;-69
2021/12/15 07:25:33;;;;;;;38.10;13.67;;;;;;;-1.32;70.78;99706.03;5064904;28;20056;-67
2021/12/15 07:27:59;;;;;;;33.97;12.40;;;;;;;-1.09;70.24;99713.78;5066397;28;20043;-68
2021/12/15 07:30:26;;;;;;;37.53;13.77;;;;;;;-1.20;70.28;99719.69;5059327;28;20052;-69
2021/12/15 07:32:52;;;;;;;31.55;12.27;;;;;;;-1.40;70.86;99706.19;5063892;28;20511;-70
2021/12/15 07:35:21;;;;;;;32.03;11.40;;;;;;;-1.35;70.78;99701.88;5064001;28;20053;-68
2021/12/15 07:37:48;;;;;;;38.33;12.63;;;;;;;-1.36;70.96;99712.81;5062730;28;20055;-68
2021/12/15 07:40:20;;;;;;;32.58;11.98;;;;;;;-1.11;70.32;99715.81;5063321;28;20045;-69
2021/12/15 07:42:56;;;;;;;32.37;11.00;;;;;;;-1.10;70.16;99703.22;5064710;28;20041;-68
2021/12/15 07:45:24;;;;;;;30.20;11.52;;;;;;;-0.94;69.75;99702.88;5040457;28;20455;-75
2021/12/15 07:47:51;;;;;;;30.73;12.18;;;;;;;-0.94;69.76;99712.75;5070500;28;20558;-77
2021/12/15 07:50:19;;;;;;;29.43;11.83;;;;;;;-0.83;69.18;99711.38;5058218;28;21077;-77
2021/12/15 07:52:47;;;;;;;34.10;10.38;;;;;;;-1.00;69.75;99709.88;5064672;28;20049;-77
2021/12/15 07:55:14;;;;;;;30.60;11.07;;;;;;;-0.93;69.64;99701.84;5067308;28;20048;-77
2021/12/15 07:57:41;;;;;;;30.95;10.82;;;;;;;-0.82;69.52;99710.34;5061721;28;20561;-78
2021/12/15 08:00:09;;;;;;;35.60;11.77;;;;;;;-0.86;69.19;99683.91;5059303;28;20513;-75
2021/12/15 08:02:39;;;;;;;32.17;12.70;;;;;;;-0.76;69.33;99702.31;5044094;28;20125;-75
2021/12/15 08:05:06;;;;;;;27.67;11.20;;;;;;;-0.64;68.89;99702.53;5062252;28;20047;-75
2021/12/15 08:07:33;;;;;;;27.98;11.32;;;;;;;-0.63;68.76;99695.28;5071584;28;20131;-76
2021/12/15 08:10:03;;;;;;;33.67;12.20;;;;;;;-0.70;68.92;99698.00;5072072;28;20048;-75
2021/12/15 08:12:29;;;;;;;34.70;11.73;;;;;;;-0.63;68.81;99696.13;5071087;28;20086;-75
2021/12/15 08:14:55;;;;;;;32.80;11.80;;;;;;;-0.66;68.69;99687.66;5069920;28;20052;-75
2021/12/15 08:17:23;;;;;;;28.67;12.10;;;;;;;-0.72;68.98;99698.19;5051987;28;20060;-75
2021/12/15 08:19:50;;;;;;;34.15;12.23;;;;;;;-0.62;68.65;99687.06;5051488;28;20143;-74
2021/12/15 08:22:16;;;;;;;38.87;13.47;;;;;;;-0.54;68.48;99691.41;5072705;28;20574;-75
2021/12/15 08:24:43;;;;;;;33.72;13.98;;;;;;;-0.61;68.80;99699.44;5066459;28;20687;-74
2021/12/15 08:27:11;;;;;;;38.38;12.32;;;;;;;-0.62;68.77;99688.94;5057277;28;20052;-75
2021/12/15 08:29:37;;;;;;;36.15;13.30;;;;;;;-0.58;68.72;99698.22;5068084;28;20061;-76
2021/12/15 08:32:04;;;;;;;33.17;12.55;;;;;;;-0.46;68.60;99695.75;5065929;28;20131;-75
2021/12/15 08:34:30;;;;;;;35.97;12.98;;;;;;;-0.44;68.27;99694.53;5067963;28;20045;-77
2021/12/15 08:36:57;;;;;;;39.38;13.05;;;;;;;-0.32;68.10;99708.16;5064625;28;20509;-79
2021/12/15 08:39:23;;;;;;;35.25;12.80;;;;;;;-0.41;68.49;99697.84;5064929;28;20059;-79
2021/12/15 08:41:49;;;;;;;38.45;13.85;;;;;;;-0.37;68.19;99699.06;5075596;28;20102;-78
2021/12/15 08:44:17;;;;;;;32.15;11.40;;;;;;;-0.51;68.58;99701.72;5069677;28;20049;-77
2021/12/15 08:46:47;;;;;;;37.08;13.00;;;;;;;-0.55;68.75;99688.91;5064586;28;20068;-76
2021/12/15 08:49:18;;;;;;;33.65;11.70;;;;;;;-0.62;68.99;99684.34;5050705;28;20527;-76
2021/12/15 08:51:46;;;;;;;38.08;14.18;;;;;;;-0.47;68.54;99686.03;5071389;28;20055;-76
2021/12/15 08:54:15;;;;;;;36.95;14.32;;;;;;;-0.73;68.85;99672.38;5046625;28;20056;-79
2021/12/15 08:56:43;;;;;;;38.17;13.77;;;;;;;-0.50;68.59;99692.63;5067509;28;20063;-76
2021/12/15 08:59:10;;;;;;;37.13;14.02;;;;;;;-0.55;68.89;99696.97;5070450;28;20052;-76
2021/12/15 09:01:40;;;;;;;37.28;13.93;;;;;;;-0.71;69.25;99680.19;5068621;28;20094;-79
2021/12/15 09:04:07;;;;;;;32.75;12.52;;;;;;;-0.61;68.79;99694.06;5059230;28;20485;-74
2021/12/15 09:06:35;;;;;;;44.27;14.60;;;;;;;-0.75;69.44;99698.59;5061130;28;20478;-77
2021/12/15 09:09:03;;;;;;;34.85;14.13;;;;;;;-0.73;69.39;99691.16;5065560;28;20049;-77
2021/12/15 09:11:29;;;;;;;34.03;13.10;;;;;;;-0.78;69.62;99685.59;5059463;28;20051;-79
2021/12/15 09:13:58;;;;;;;41.72;14.70;;;;;;;-0.83;69.88;99674.59;5064417;28;20044;-73
2021/12/15 09:16:27;;;;;;;43.92;14.27;;;;;;;-0.84;70.05;99688.25;5064209;28;20064;-74
2021/12/15 09:18:56;;;;;;;36.17;12.93;;;;;;;-0.81;69.98;99677.09;5067565;28;20535;-75
2021/12/15 09:21:25;;;;;;;33.30;12.65;;;;;;;-0.82;69.87;99684.31;5063745;28;20054;-82
2021/12/15 09:23:53;;;;;;;36.83;13.50;;;;;;;-0.83;70.02;99669.22;5067281;28;20044;-72
2021/12/15 09:26:20;;;;;;;;;;;;;;;-0.87;70.16;99678.72;5072588;28;20529;-72
2021/12/15 09:28:47;;;;;;;32.88;12.68;;;;;;;-0.78;69.77;99674.84;5059933;28;19924;-73
2021/12/15 09:31:15;;;;;;;41.15;13.70;;;;;;;-0.68;69.30;99668.22;5063325;28;20044;-73
2021/12/15 09:33:44;;;;;;;38.70;13.00;;;;;;;-0.80;69.33;99666.13;5024901;28;20497;-75
2021/12/15 09:36:14;;;;;;;37.70;12.70;;;;;;;-0.69;69.22;99670.09;5055479;28;20559;-73
2021/12/15 09:38:43;;;;;;;34.95;13.80;;;;;;;-0.81;69.18;99655.63;5041871;28;20048;-74
2021/12/15 09:41:13;;;;;;;40.97;13.57;;;;;;;-0.88;69.56;99650.22;5065717;28;20060;-78
2021/12/15 09:43:41;;;;;;;43.90;14.95;;;;;;;-1.02;70.10;99647.50;5043139;28;20048;-77
2021/12/15 09:46:29;;;;;;;39.85;12.77;;;;;;;-0.97;69.82;99638.00;5046108;28;20052;-77
2021/12/15 10:11:09;;;;;;;39.72;13.98;;;;;;;-0.92;69.52;99601.47;5067622;28;19928;-75
2021/12/15 10:19:19;;;;;;;37.57;13.77;;;;;;;-0.87;69.87;99619.66;5060856;28;20061;-76
2021/12/15 10:22:04;;;;;;;32.92;12.35;;;;;;;-0.84;69.89;99624.63;5062758;28;20048;-76
2021/12/15 10:24:36;;;;;;;35.10;13.35;;;;;;;-0.89;70.05;99621.72;5058149;28;20335;-77
2021/12/15 10:27:05;;;;;;;38.92;13.23;;;;;;;-1.03;70.26;99604.75;5062940;28;20045;-74
2021/12/15 10:29:31;;;;;;;37.33;13.70;;;;;;;-1.03;70.57;99605.59;5061843;28;20098;-74
2021/12/15 10:32:00;;;;;;;33.60;13.27;;;;;;;-1.00;70.51;99610.56;5046717;28;20043;-74
2021/12/15 10:34:27;;;;;;;41.00;14.20;;;;;;;-1.01;70.63;99605.41;5049065;28;20047;-73
2021/12/15 10:36:53;;;;;;;;;;;;;;;-0.95;70.60;99604.59;5062731;28;20131;-74
2021/12/15 10:39:22;;;;;;;49.83;13.60;;;;;;;-0.98;70.65;99607.69;5061488;28;20042;-74
2021/12/15 10:41:52;;;;;;;41.23;13.70;;;;;;;-1.04;70.69;99605.78;5063744;28;20045;-73
2021/12/15 10:44:24;;;;;;;43.13;13.77;;;;;;;-0.95;70.79;99622.53;5064952;28;20139;-73
2021/12/15 10:46:52;;;;;;;38.60;13.27;;;;;;;-1.01;70.84;99591.97;5060039;28;20064;-73
2021/12/15 10:49:20;;;;;;;40.43;14.30;;;;;;;-0.91;70.42;99592.41;5064034;28;20057;-73
2021/12/15 10:51:48;;;;;;;;;;;;;;;-0.80;70.49;99601.69;5041683;28;20094;-74
2021/12/15 10:54:16;;;;;;;43.17;13.60;;;;;;;-0.87;70.59;99590.13;5058468;28;19924;-73
2021/12/15 10:56:52;;;;;;;35.30;13.02;;;;;;;-0.91;71.17;99595.09;5038680;28;20120;-80
2021/12/15 10:59:20;;;;;;;39.40;13.88;;;;;;;-0.94;71.04;99578.53;5060194;28;20045;-79
2021/12/15 11:01:55;;;;;;;38.70;14.00;;;;;;;-0.95;71.36;99591.16;5050981;28;20486;-80
2021/12/15 11:04:41;;;;;;;38.45;14.57;;;;;;;-0.86;71.32;99595.31;5054832;28;20123;-80
2021/12/15 11:07:25;;;;;;;39.03;13.10;;;;;;;-0.81;71.31;99592.00;5085063;28;20134;-80
2021/12/15 11:09:59;;;;;;;37.35;14.18;;;;;;;-0.89;71.62;99598.38;5059777;28;20044;-80
2021/12/15 11:12:31;;;;;;;40.03;13.88;;;;;;;-1.00;71.88;99602.50;5058040;28;20040;-80
2021/12/15 11:14:59;;;;;;;40.45;14.30;;;;;;;-0.87;71.68;99590.13;5058099;28;20140;-79
2021/12/15 11:17:28;;;;;;;36.85;13.68;;;;;;;-0.76;71.29;99597.59;5037635;28;20041;-80
2021/12/15 11:19:59;;;;;;;44.33;14.43;;;;;;;-0.68;71.31;99590.34;5054786;28;20045;-80
2021/12/15 11:22:54;;;;;;;38.67;14.68;;;;;;;-0.68;70.92;99593.03;5066675;28;20041;-79
2021/12/15 11:25:38;;;;;;;39.00;13.75;;;;;;;-0.63;70.44;99575.28;5064606;28;20353;-79
2021/12/15 11:28:10;;;;;;;37.00;14.95;;;;;;;-0.41;70.20;99595.72;5064502;28;20428;-79
2021/12/15 11:30:40;;;;;;;39.45;13.02;;;;;;;-0.34;69.89;99583.94;5068860;28;20090;-80
2021/12/15 11:33:09;;;;;;;41.97;14.82;;;;;;;-0.36;69.94;99590.56;5061004;28;20041;-79
2021/12/15 11:35:39;;;;;;;35.47;14.23;;;;;;;-0.31;69.62;99580.03;5065579;28;20048;-80
2021/12/15 11:38:13;;;;;;;38.72;14.15;;;;;;;-0.25;69.42;99581.03;5067901;28;20045;-80
2021/12/15 11:40:46;;;;;;;40.35;14.90;;;;;;;-0.27;69.51;99588.47;5036744;28;20045;-80
2021/12/15 11:43:29;;;;;;;46.70;16.38;;;;;;;-0.32;69.50;99589.94;5054782;28;20052;-80
2021/12/15 11:45:56;;;;;;;39.70;14.95;;;;;;;-0.26;69.33;99598.19;5043524;28;20071;-79
2021/12/15 11:48:25;;;;;;;37.67;15.00;;;;;;;-0.38;69.75;99589.94;5069474;28;20048;-79
2021/12/15 11:50:54;;;;;;;41.38;14.50;;;;;;;-0.36;69.85;99593.25;5063565;28;20090;-80
2021/12/15 11:53:28;;;;;;;40.15;14.32;;;;;;;-0.31;69.63;99590.78;5062316;28;20075;-80
2021/12/15 11:56:20;;;;;;;49.83;16.35;;;;;;;-0.39;69.99;99597.19;5047164;28;20052;-80
2021/12/15 11:58:55;;;;;;;46.42;15.50;;;;;;;-0.42;69.83;99589.53;5044498;28;20055;-80
2021/12/15 12:01:47;;;;;;;40.78;14.93;;;;;;;-0.32;69.66;99607.91;5063436;28;20059;-81
2021/12/15 12:04:20;;;;;;;39.78;15.27;;;;;;;-0.33;69.79;99592.81;5062199;28;20132;-81
2021/12/15 12:06:48;;;;;;;50.28;15.13;;;;;;;-0.36;69.71;99585.19;5045935;28;20420;-80
2021/12/15 12:09:18;;;;;;;47.47;15.40;;;;;;;-0.39;69.93;99605.25;5065794;28;20420;-79
2021/12/15 12:11:49;;;;;;;40.47;14.85;;;;;;;-0.38;69.80;99593.47;5066531;28;20041;-80
2021/12/15 12:14:36;;;;;;;38.80;15.05;;;;;;;-0.36;69.77;99604.84;5061691;28;20045;-81
2021/12/15 12:17:05;;;;;;;52.20;14.60;;;;;;;-0.54;70.31;99591.19;5060197;28;20131;-80
2021/12/15 12:19:32;;;;;;;37.55;13.40;;;;;;;-0.55;70.42;99608.31;5081556;28;20040;-80
2021/12/15 12:21:58;;;;;;;38.15;13.95;;;;;;;-0.50;70.28;99617.41;5061528;28;20048;-80
2021/12/15 12:24:25;;;;;;;42.08;15.68;;;;;;;-0.57;70.23;99613.91;5043367;28;20404;-80
2021/12/15 12:26:52;;;;;;;40.95;14.50;;;;;;;-0.68;70.92;99607.31;5061172;28;20047;-80
2021/12/15 12:29:19;;;;;;;39.15;15.05;;;;;;;-0.76;71.07;99612.88;5062836;28;20504;-80
2021/12/15 12:31:46;;;;;;;41.95;14.65;;;;;;;-0.67;71.01;99602.75;5042861;28;20531;-80
2021/12/15 12:34:12;;;;;;;40.03;14.52;;;;;;;-0.58;70.81;99610.41;5063179;28;20058;-80
2021/12/15 12:36:43;;;;;;;41.13;15.45;;;;;;;-0.56;70.14;99594.09;5067950;28;20071;-79
2021/12/15 12:39:13;;;;;;;39.83;14.57;;;;;;;-0.44;70.16;99603.19;5064499;28;20061;-80
2021/12/15 12:41:44;;;;;;;40.00;13.20;;;;;;;-0.34;69.91;99613.50;5056339;28;20107;-79
2021/12/15 12:44:14;;;;;;;50.85;14.82;;;;;;;-0.27;69.72;99610.81;5051903;28;20084;-80
2021/12/15 12:46:54;;;;;;;45.05;14.55;;;;;;;-0.22;69.56;99602.13;5056233;28;20045;-79